Time;durP1;ratioP1;P1;durP2;ratioP2;P2;SDS_P1;SDS_P2;PMS_P1;PMS_P2;Temp;Humidity;BMP_temperature;BMP_pressure;BME280_temperature;BME280_humidity;BME280_pressure;Samples;Min_cycle;Max_cycle;Signal;HPM_P1;HPM_P2
2021/06/09 00:01:22;;;;;;;7.67;3.90;;;;;;;17.12;97.65;100394.25;1710035;81;26493;-58
2021/06/09 00:03:49;;;;;;;7.92;3.70;;;;;;;17.10;97.83;100394.84;1731583;82;21375;-58
2021/06/09 00:06:16;;;;;;;6.25;3.98;;;;;;;17.08;98.06;100398.15;1727318;82;21664;-58
2021/06/09 00:08:43;;;;;;;6.85;4.03;;;;;;;17.06;98.29;100397.39;1730980;81;21093;-59
2021/06/09 00:11:09;;;;;;;6.87;4.30;;;;;;;17.06;98.51;100402.80;1730895;81;21045;-58
2021/06/09 00:13:37;;;;;;;11.57;4.80;;;;;;;17.04;98.61;100404.28;1730824;80;21084;-58
2021/06/09 00:16:08;;;;;;;7.10;4.50;;;;;;;17.03;98.78;100403.02;1734422;81;20928;-57
2021/06/09 00:18:35;;;;;;;12.33;4.55;;;;;;;17.03;99.07;100396.24;1721291;82;21135;-58
2021/06/09 00:21:02;;;;;;;12.15;5.00;;;;;;;17.04;99.33;100399.33;1727306;82;21133;-58
2021/06/09 00:23:30;;;;;;;9.25;4.75;;;;;;;17.06;99.35;100402.80;1689161;82;21102;-58
2021/06/09 00:26:00;;;;;;;13.55;4.75;;;;;;;17.03;99.32;100397.13;1722254;82;20939;-59
2021/06/09 00:28:25;;;;;;;11.95;4.90;;;;;;;17.01;99.52;100386.00;1727548;82;20930;-58
2021/06/09 00:30:52;;;;;;;10.65;5.17;;;;;;;16.99;99.62;100389.30;1734947;82;21081;-58
2021/06/09 00:33:19;;;;;;;13.50;5.12;;;;;;;16.95;99.74;100395.88;1727366;82;21363;-58
2021/06/09 00:35:45;;;;;;;9.00;4.78;;;;;;;16.93;99.86;100400.53;1674905;84;21062;-58
2021/06/09 00:38:11;;;;;;;11.15;4.92;;;;;;;16.89;100.00;100401.21;1730564;82;21445;-59
2021/06/09 00:40:38;;;;;;;6.30;4.80;;;;;;;16.86;100.00;100400.92;1725455;82;21427;-58
2021/06/09 00:43:20;;;;;;;14.93;5.25;;;;;;;16.83;100.00;100403.84;1728784;81;20966;-58
2021/06/09 00:45:50;;;;;;;10.48;5.35;;;;;;;16.78;100.00;100399.22;1723590;82;21470;-59
2021/06/09 00:48:16;;;;;;;8.98;4.45;;;;;;;16.71;100.00;100393.84;1722580;82;21102;-59
2021/06/09 00:50:43;;;;;;;11.73;5.17;;;;;;;16.66;100.00;100391.91;1726529;81;20936;-59
2021/06/09 00:53:28;;;;;;;9.75;5.47;;;;;;;16.60;100.00;100392.70;1723995;82;20957;-58
2021/06/09 00:56:02;;;;;;;12.80;5.25;;;;;;;16.54;100.00;100383.65;1731867;81;26915;-58
2021/06/09 00:58:28;;;;;;;7.67;5.00;;;;;;;16.49;100.00;100392.56;1710826;82;21116;-57
2021/06/09 01:00:55;;;;;;;10.45;4.67;;;;;;;16.45;100.00;100389.17;1727237;81;36055;-58
2021/06/09 01:03:22;;;;;;;8.98;4.67;;;;;;;16.41;100.00;100385.41;1721208;82;20967;-58
2021/06/09 01:05:49;;;;;;;8.73;4.35;;;;;;;16.39;100.00;100383.30;1728773;82;21405;-57
2021/06/09 01:08:16;;;;;;;7.53;4.97;;;;;;;16.37;100.00;100381.18;1731545;82;21607;-57
2021/06/09 01:10:48;;;;;;;6.67;5.40;;;;;;;16.36;100.00;100395.67;1731053;82;21099;-58
2021/06/09 01:13:15;;;;;;;11.78;5.33;;;;;;;16.35;100.00;100385.32;1729331;81;20958;-58
2021/06/09 01:15:41;;;;;;;9.50;5.85;;;;;;;16.33;100.00;100384.09;1728528;82;20873;-59
2021/06/09 01:18:08;;;;;;;10.68;5.40;;;;;;;16.33;100.00;100385.44;1733526;81;20940;-59
2021/06/09 01:20:35;;;;;;;10.10;5.35;;;;;;;16.31;100.00;100381.09;1733883;82;21527;-59
2021/06/09 01:23:03;;;;;;;10.68;5.75;;;;;;;16.27;100.00;100384.50;1731716;81;21865;-58
2021/06/09 01:25:29;;;;;;;8.05;5.20;;;;;;;16.23;100.00;100385.64;1728077;82;21041;-58
2021/06/09 01:27:56;;;;;;;7.75;5.33;;;;;;;16.21;100.00;100395.69;1732072;82;20995;-59
2021/06/09 01:30:23;;;;;;;11.45;5.70;;;;;;;16.18;100.00;100395.42;1726684;82;20929;-58
2021/06/09 01:32:50;;;;;;;10.45;5.65;;;;;;;16.16;100.00;100395.12;1734456;82;20902;-59
2021/06/09 01:35:17;;;;;;;9.73;5.45;;;;;;;16.14;100.00;100387.59;1679300;84;21781;-59
2021/06/09 01:37:43;;;;;;;14.43;5.47;;;;;;;16.14;100.00;100393.00;1667951;84;21024;-58
2021/06/09 01:40:13;;;;;;;14.00;6.20;;;;;;;16.14;100.00;100397.95;1724454;82;21124;-58
2021/06/09 01:42:40;;;;;;;11.33;5.60;;;;;;;16.13;100.00;100399.37;1724003;82;21005;-58
2021/06/09 01:45:07;;;;;;;18.67;5.17;;;;;;;16.12;100.00;100396.30;1707850;82;21078;-58
2021/06/09 01:47:34;;;;;;;16.70;5.83;;;;;;;16.11;100.00;100398.11;1729661;82;21732;-58
2021/06/09 01:50:04;;;;;;;12.13;5.87;;;;;;;16.11;100.00;100403.52;1732574;82;21454;-58
2021/06/09 01:52:31;;;;;;;14.63;5.53;;;;;;;16.10;100.00;100409.05;1720838;82;21407;-58
2021/06/09 01:54:57;;;;;;;11.60;5.97;;;;;;;16.07;100.00;100404.69;1697034;83;20990;-58
2021/06/09 01:57:24;;;;;;;9.35;5.15;;;;;;;16.05;100.00;100409.33;1730323;81;21085;-58
2021/06/09 01:59:51;;;;;;;11.73;5.28;;;;;;;16.03;100.00;100399.09;1727829;82;21071;-57
2021/06/09 02:02:17;;;;;;;11.50;6.12;;;;;;;16.01;100.00;100407.80;1688318;82;27456;-58
2021/06/09 02:04:44;;;;;;;13.48;6.00;;;;;;;15.99;100.00;100407.88;1694570;84;21462;-59
2021/06/09 02:07:10;;;;;;;12.33;6.50;;;;;;;15.99;100.00;100413.28;1729059;82;21672;-58
2021/06/09 02:09:37;;;;;;;14.75;6.33;;;;;;;15.98;100.00;100410.20;1732220;81;21002;-59
2021/06/09 02:12:07;;;;;;;12.78;7.17;;;;;;;15.97;100.00;100404.41;1728129;81;21133;-58
2021/06/09 02:14:34;;;;;;;14.55;9.00;;;;;;;15.98;100.00;100404.78;1732061;80;20970;-59
2021/06/09 02:17:01;;;;;;;17.10;9.65;;;;;;;15.99;100.00;100402.47;1710433;82;20926;-59
2021/06/09 02:19:28;;;;;;;10.53;8.15;;;;;;;16.02;100.00;100398.22;1668329;82;21219;-59
2021/06/09 02:21:55;;;;;;;11.48;7.30;;;;;;;16.07;100.00;100402.48;1729204;82;21141;-59
2021/06/09 02:24:22;;;;;;;11.45;6.42;;;;;;;16.09;100.00;100401.40;1728374;80;21737;-59
2021/06/09 02:26:49;;;;;;;13.28;5.60;;;;;;;16.15;100.00;100404.20;1725658;81;20985;-59
2021/06/09 02:29:16;;;;;;;11.33;5.12;;;;;;;16.25;100.00;100402.66;1668708;84;21402;-58
2021/06/09 02:31:48;;;;;;;10.70;5.05;;;;;;;16.39;100.00;100400.88;1723876;82;20965;-59
2021/06/09 02:34:17;;;;;;;9.35;4.90;;;;;;;16.48;100.00;100404.36;1729930;82;21027;-58
2021/06/09 02:36:44;;;;;;;9.45;5.35;;;;;;;16.58;100.00;100406.83;1727335;82;21118;-59
2021/06/09 02:39:11;;;;;;;8.70;5.35;;;;;;;16.66;100.00;100414.91;1709209;82;20991;-58
2021/06/09 02:41:37;;;;;;;17.32;5.72;;;;;;;16.72;100.00;100416.73;1726410;82;21502;-62
2021/06/09 02:44:05;;;;;;;11.03;5.53;;;;;;;16.77;100.00;100419.15;1719541;82;21475;-58
2021/06/09 02:46:42;;;;;;;7.92;4.95;;;;;;;16.80;100.00;100416.23;1728651;80;21061;-62
2021/06/09 02:49:11;;;;;;;9.15;4.65;;;;;;;16.80;99.72;100418.94;1688234;84;21204;-62
2021/06/09 02:51:43;;;;;;;12.45;5.10;;;;;;;16.80;99.00;100410.81;1694727;83;21051;-62
2021/06/09 02:54:35;;;;;;;8.50;4.97;;;;;;;16.82;98.54;100423.76;1689600;83;21048;-62
2021/06/09 02:57:34;;;;;;;11.35;4.90;;;;;;;16.84;98.11;100417.75;1657073;84;21521;-62
2021/06/09 03:00:12;;;;;;;10.05;5.55;;;;;;;16.86;97.37;100432.05;1726620;82;21370;-62
2021/06/09 03:03:21;;;;;;;8.63;4.50;;;;;;;16.89;96.89;100432.34;1715347;82;29521;-62
2021/06/09 03:06:06;;;;;;;9.98;4.53;;;;;;;16.92;96.58;100443.47;1724993;82;21523;-62
2021/06/09 03:09:02;;;;;;;15.58;5.50;;;;;;;16.95;95.90;100437.84;1726827;82;20910;-61
2021/06/09 03:11:34;;;;;;;7.87;4.60;;;;;;;16.97;95.67;100437.25;1731427;82;21618;-61
2021/06/09 03:17:12;;;;;;;10.72;4.58;;;;;;;17.10;95.17;100426.49;1728586;80;21118;-61
2021/06/09 03:20:11;;;;;;;12.98;5.15;;;;;;;17.22;94.90;100435.62;1722674;82;21021;-61
2021/06/09 03:22:46;;;;;;;12.33;5.22;;;;;;;17.33;94.28;100431.67;1717685;82;21034;-62
2021/06/09 03:25:17;;;;;;;7.83;4.67;;;;;;;17.44;93.54;100424.16;1687468;83;20922;-61
2021/06/09 03:27:54;;;;;;;7.47;4.80;;;;;;;17.51;92.59;100432.27;1691375;84;21518;-61
2021/06/09 03:30:24;;;;;;;11.93;4.97;;;;;;;17.57;92.10;100424.17;1662051;85;20989;-62
2021/06/09 03:32:57;;;;;;;11.38;4.90;;;;;;;17.64;91.75;100431.40;1714492;82;21144;-62
2021/06/09 03:35:36;;;;;;;11.25;4.33;;;;;;;17.71;90.74;100422.73;1721090;82;21050;-62
2021/06/09 03:38:06;;;;;;;11.00;4.87;;;;;;;17.80;90.27;100433.92;1685385;84;21548;-62
2021/06/09 03:40:40;;;;;;;12.43;5.20;;;;;;;17.89;89.84;100430.55;1722733;81;21443;-62
2021/06/09 03:43:08;;;;;;;9.10;4.83;;;;;;;17.98;89.54;100431.23;1730382;81;21181;-60
2021/06/09 03:45:43;;;;;;;10.80;6.60;;;;;;;18.12;88.67;100426.70;1728114;82;20968;-61
2021/06/09 03:48:10;;;;;;;13.58;5.72;;;;;;;18.20;87.62;100427.01;1725965;81;20910;-61
2021/06/09 03:50:37;;;;;;;7.15;5.03;;;;;;;18.30;86.81;100432.63;1731133;82;20994;-61
2021/06/09 03:53:04;;;;;;;12.13;6.97;;;;;;;18.36;86.40;100433.56;1681125;83;21553;-61
2021/06/09 03:55:34;;;;;;;10.23;5.60;;;;;;;18.44;85.28;100439.77;1710037;82;21651;-61
2021/06/09 03:58:01;;;;;;;13.35;6.72;;;;;;;18.50;85.45;100433.91;1728478;82;20989;-61
2021/06/09 04:00:28;;;;;;;15.40;8.63;;;;;;;18.60;85.27;100422.73;1727316;81;20989;-61
2021/06/09 04:02:55;;;;;;;15.53;8.35;;;;;;;18.73;84.94;100424.55;1725971;82;34145;-61
2021/06/09 04:05:22;;;;;;;15.35;10.05;;;;;;;18.83;83.93;100433.72;1727700;81;21094;-62
2021/06/09 04:07:50;;;;;;;15.83;10.00;;;;;;;18.93;83.21;100431.69;1726122;80;21586;-62
2021/06/09 04:10:17;;;;;;;11.38;5.95;;;;;;;18.99;82.81;100439.40;1726478;81;21433;-62
2021/06/09 04:12:45;;;;;;;12.75;4.85;;;;;;;19.07;82.67;100438.31;1733647;81;21466;-61
2021/06/09 04:15:13;;;;;;;16.05;5.40;;;;;;;19.16;82.66;100438.98;1724862;82;20994;-62
2021/06/09 04:17:40;;;;;;;19.17;9.35;;;;;;;19.27;81.80;100430.48;1733834;82;21075;-64
2021/06/09 04:20:08;;;;;;;20.90;8.88;;;;;;;19.37;81.19;100420.66;1699011;83;21174;-62
2021/06/09 04:22:37;;;;;;;16.30;10.55;;;;;;;19.49;80.37;100428.83;1673905;85;20947;-62
2021/06/09 04:25:07;;;;;;;16.27;7.33;;;;;;;19.59;79.78;100432.58;1699742;81;21107;-62
2021/06/09 04:27:38;;;;;;;17.05;11.40;;;;;;;19.70;79.11;100427.14;1732263;82;20978;-62
2021/06/09 04:30:07;;;;;;;14.70;8.20;;;;;;;19.81;78.23;100429.02;1733586;81;21662;-62
2021/06/09 04:32:57;;;;;;;21.35;11.97;;;;;;;19.89;78.12;100431.13;1736288;82;21815;-63
2021/06/09 04:35:31;;;;;;;19.07;10.70;;;;;;;19.99;77.09;100433.50;1697713;82;21057;-63
2021/06/09 04:37:59;;;;;;;24.00;10.88;;;;;;;20.09;76.70;100432.78;1727141;82;20965;-63
2021/06/09 04:40:27;;;;;;;20.80;12.33;;;;;;;20.14;76.64;100429.19;1736665;81;21095;-62
2021/06/09 04:42:56;;;;;;;23.15;11.00;;;;;;;20.24;76.42;100438.36;1731321;80;21624;-65
2021/06/09 04:45:24;;;;;;;16.35;11.18;;;;;;;20.35;75.90;100432.52;1743548;81;21917;-63
2021/06/09 04:47:52;;;;;;;22.07;10.85;;;;;;;20.42;74.87;100435.09;1743438;80;20961;-64
2021/06/09 04:50:22;;;;;;;23.60;9.83;;;;;;;20.51;74.58;100438.45;1742512;82;21055;-64
2021/06/09 04:52:50;;;;;;;18.50;8.03;;;;;;;20.60;74.54;100444.48;1739648;82;21177;-63
2021/06/09 04:55:17;;;;;;;18.37;9.85;;;;;;;20.69;74.19;100444.73;1736684;80;21255;-64
2021/06/09 04:57:45;;;;;;;16.55;8.28;;;;;;;20.74;73.98;100447.94;1739218;80;21428;-63
2021/06/09 05:00:14;;;;;;;15.60;10.05;;;;;;;20.80;73.91;100447.45;1740873;81;21481;-63
2021/06/09 05:02:41;;;;;;;17.23;10.32;;;;;;;20.88;73.59;100444.09;1743534;81;37615;-64
2021/06/09 05:05:09;;;;;;;20.62;11.70;;;;;;;20.98;73.55;100451.00;1744251;80;21068;-65
2021/06/09 05:07:37;;;;;;;17.23;10.23;;;;;;;21.07;73.02;100452.08;1672612;83;21112;-63
2021/06/09 05:10:05;;;;;;;18.52;11.73;;;;;;;21.11;73.07;100450.34;1740348;80;21148;-64
2021/06/09 05:12:35;;;;;;;15.05;8.80;;;;;;;21.22;72.95;100449.91;1742038;82;21025;-64
2021/06/09 05:15:08;;;;;;;16.60;10.08;;;;;;;21.33;72.37;100437.58;1750365;80;21436;-62
2021/06/09 05:17:45;;;;;;;16.05;9.50;;;;;;;21.47;71.82;100437.27;1738427;82;21030;-60
2021/06/09 05:20:33;;;;;;;14.75;10.48;;;;;;;21.58;69.97;100439.58;1731629;82;21187;-64
2021/06/09 05:23:21;;;;;;;16.17;8.75;;;;;;;21.67;69.82;100437.43;1729906;81;21798;-64
2021/06/09 05:25:51;;;;;;;13.62;5.75;;;;;;;21.79;69.39;100438.73;1730283;81;21039;-58
2021/06/09 05:28:20;;;;;;;25.30;6.65;;;;;;;21.88;68.86;100442.88;1732500;81;21006;-58
2021/06/09 05:30:47;;;;;;;18.70;5.75;;;;;;;21.96;68.35;100444.91;1735078;82;21157;-58
2021/06/09 05:33:13;;;;;;;22.80;7.28;;;;;;;22.06;67.92;100440.86;1734002;82;21061;-59
2021/06/09 05:35:40;;;;;;;18.57;8.73;;;;;;;22.15;66.60;100446.01;1688931;82;21646;-59
2021/06/09 05:38:07;;;;;;;15.85;9.40;;;;;;;22.20;66.00;100445.09;1731086;80;21547;-59
2021/06/09 05:40:34;;;;;;;22.00;10.75;;;;;;;22.25;65.97;100446.93;1735886;81;21494;-59
2021/06/09 05:43:01;;;;;;;20.10;10.18;;;;;;;22.32;65.77;100445.38;1716140;82;21574;-58
2021/06/09 05:45:33;;;;;;;16.35;9.90;;;;;;;22.42;65.84;100444.52;1678755;84;21366;-59
2021/06/09 05:48:00;;;;;;;21.15;7.87;;;;;;;22.55;66.00;100447.92;1740688;81;21077;-58
2021/06/09 05:50:29;;;;;;;18.52;6.97;;;;;;;22.73;64.87;100452.20;1743940;81;21350;-59
2021/06/09 05:52:59;;;;;;;19.60;8.40;;;;;;;22.83;63.90;100445.38;1745521;81;21047;-59
2021/06/09 05:55:28;;;;;;;17.50;8.20;;;;;;;22.89;63.24;100453.04;1744065;81;21013;-58
2021/06/09 05:57:56;;;;;;;17.23;7.92;;;;;;;22.95;63.12;100442.53;1718718;81;20939;-60
2021/06/09 06:00:25;;;;;;;13.00;7.97;;;;;;;23.02;62.64;100450.03;1741046;80;21868;-60
2021/06/09 06:02:53;;;;;;;14.03;4.70;;;;;;;23.10;62.99;100445.22;1741053;81;20953;-58
2021/06/09 06:05:21;;;;;;;13.68;4.85;;;;;;;23.18;61.79;100443.98;1741549;80;20966;-59
2021/06/09 06:07:51;;;;;;;8.93;4.87;;;;;;;23.21;61.17;100451.54;1737968;80;21960;-59
2021/06/09 06:10:20;;;;;;;7.78;4.25;;;;;;;23.17;63.15;100455.05;1738578;81;21069;-59
2021/06/09 06:12:50;;;;;;;15.08;5.08;;;;;;;23.19;64.46;100447.56;1738160;81;21094;-59
2021/06/09 06:15:18;;;;;;;9.85;4.37;;;;;;;23.28;63.50;100447.25;1741867;81;20886;-59
2021/06/09 06:17:47;;;;;;;9.90;4.20;;;;;;;23.36;63.70;100450.14;1735682;81;21082;-59
2021/06/09 06:20:18;;;;;;;8.95;4.70;;;;;;;23.41;62.31;100442.36;1737448;81;21373;-58
2021/06/09 06:22:49;;;;;;;6.33;4.15;;;;;;;23.49;61.99;100444.86;1740152;80;21068;-59
2021/06/09 06:25:23;;;;;;;6.33;4.17;;;;;;;23.51;62.38;100445.58;1742419;80;21113;-58
2021/06/09 06:27:55;;;;;;;7.80;4.20;;;;;;;23.61;62.62;100440.97;1737662;80;21113;-59
2021/06/09 06:30:24;;;;;;;8.45;4.37;;;;;;;23.78;61.20;100449.44;1738446;80;20931;-59
2021/06/09 06:32:55;;;;;;;11.60;4.78;;;;;;;23.88;60.40;100444.78;1735225;80;20920;-58
2021/06/09 06:35:24;;;;;;;7.10;3.62;;;;;;;23.96;60.20;100445.42;1739465;80;21120;-64
2021/06/09 06:37:51;;;;;;;9.50;4.20;;;;;;;24.05;58.57;100442.33;1718225;80;21100;-64
2021/06/09 06:40:28;;;;;;;5.78;3.83;;;;;;;24.13;58.11;100449.27;1741399;80;21602;-62
2021/06/09 06:42:56;;;;;;;8.05;4.50;;;;;;;24.19;58.14;100445.92;1701916;81;20914;-64
2021/06/09 06:45:25;;;;;;;13.08;3.90;;;;;;;24.22;57.87;100442.91;1635081;85;21464;-63
2021/06/09 06:47:53;;;;;;;9.45;4.28;;;;;;;24.27;57.40;100447.42;1693171;82;21477;-64
2021/06/09 06:50:22;;;;;;;4.42;3.60;;;;;;;24.38;57.02;100445.48;1692301;82;21593;-64
2021/06/09 06:52:49;;;;;;;5.22;3.37;;;;;;;24.42;55.63;100445.53;1692310;82;21124;-64
2021/06/09 06:55:19;;;;;;;5.80;3.87;;;;;;;24.46;55.57;100445.61;1692920;82;20945;-63
2021/06/09 06:57:49;;;;;;;5.62;3.52;;;;;;;24.56;55.04;100458.73;1693572;82;22055;-61
2021/06/09 07:00:20;;;;;;;6.10;3.37;;;;;;;24.67;54.70;100452.71;1693611;82;21024;-63
2021/06/09 07:02:51;;;;;;;5.40;3.52;;;;;;;24.76;54.92;100451.80;1691638;83;70833;-62
2021/06/09 07:05:19;;;;;;;6.95;4.30;;;;;;;24.83;54.44;100454.80;1693515;82;21837;-62
2021/06/09 07:07:46;;;;;;;5.28;3.80;;;;;;;24.85;53.86;100452.23;1687916;82;21085;-62
2021/06/09 07:10:15;;;;;;;5.90;3.60;;;;;;;24.84;54.14;100457.37;1694570;82;21094;-63
2021/06/09 07:12:42;;;;;;;5.55;3.12;;;;;;;24.87;54.38;100443.38;1694002;82;21572;-62
2021/06/09 07:15:13;;;;;;;7.30;3.37;;;;;;;24.96;54.25;100446.20;1692519;82;21352;-64
2021/06/09 07:17:50;;;;;;;8.15;4.50;;;;;;;25.07;54.24;100440.47;1674099;83;21530;-63
2021/06/09 07:20:22;;;;;;;6.95;3.80;;;;;;;25.15;53.86;100443.30;1692819;82;20977;-66
2021/06/09 07:22:49;;;;;;;7.22;3.12;;;;;;;25.12;53.85;100442.75;1660906;84;21018;-63
2021/06/09 07:25:17;;;;;;;4.10;3.10;;;;;;;25.11;52.22;100441.90;1666805;84;21047;-65
2021/06/09 07:27:49;;;;;;;6.97;3.22;;;;;;;25.13;50.72;100447.21;1661067;84;21586;-64
2021/06/09 07:30:18;;;;;;;8.95;4.08;;;;;;;25.20;49.80;100450.19;1694885;82;21031;-64
2021/06/09 07:32:46;;;;;;;8.10;3.37;;;;;;;25.26;50.24;100447.69;1663632;84;21104;-63
2021/06/09 07:35:14;;;;;;;15.25;3.62;;;;;;;25.30;50.40;100454.58;1657162;84;21793;-63
2021/06/09 07:37:48;;;;;;;8.95;3.40;;;;;;;25.32;50.33;100454.44;1659076;84;21048;-65
2021/06/09 07:40:25;;;;;;;7.65;4.20;;;;;;;25.42;50.85;100448.83;1690802;83;21651;-66
2021/06/09 07:42:54;;;;;;;11.93;3.72;;;;;;;25.52;51.17;100452.39;1719934;80;21066;-64
2021/06/09 07:45:22;;;;;;;8.00;4.10;;;;;;;25.61;51.15;100453.33;1739729;81;21061;-65
2021/06/09 07:47:49;;;;;;;9.55;4.00;;;;;;;25.67;50.57;100447.72;1736904;80;20945;-63
2021/06/09 07:50:23;;;;;;;7.42;3.92;;;;;;;25.75;50.02;100458.73;1727731;81;21455;-65
2021/06/09 07:52:50;;;;;;;8.78;3.10;;;;;;;25.76;50.00;100460.99;1737736;81;21139;-64
2021/06/09 07:55:17;;;;;;;4.60;3.37;;;;;;;25.76;49.55;100452.76;1735415;82;21151;-62
2021/06/09 07:57:43;;;;;;;7.72;3.12;;;;;;;25.83;49.57;100456.57;1675489;82;21107;-62
2021/06/09 08:00:12;;;;;;;6.05;3.52;;;;;;;25.88;49.75;100461.06;1618298;84;20956;-62
2021/06/09 08:02:42;;;;;;;4.50;2.92;;;;;;;25.93;49.45;100451.81;1690745;83;42317;-61
2021/06/09 08:05:10;;;;;;;4.17;3.58;;;;;;;25.94;49.21;100454.91;1692034;83;21677;-61
2021/06/09 08:07:38;;;;;;;5.90;3.90;;;;;;;25.87;49.23;100464.83;1739878;81;21600;-62
2021/06/09 08:10:10;;;;;;;8.35;3.95;;;;;;;25.78;50.05;100451.55;1740748;81;21524;-61
2021/06/09 08:12:37;;;;;;;9.65;4.22;;;;;;;25.83;50.23;100444.22;1738231;80;21084;-64
2021/06/09 08:15:06;;;;;;;5.28;3.22;;;;;;;25.92;50.40;100461.08;1734864;80;21507;-62
2021/06/09 08:17:33;;;;;;;3.42;3.12;;;;;;;25.95;48.97;100469.52;1737638;80;21144;-61
2021/06/09 08:19:59;;;;;;;6.22;2.87;;;;;;;25.91;49.10;100460.73;1733298;80;20952;-62
2021/06/09 08:22:26;;;;;;;5.58;2.83;;;;;;;25.81;49.21;100459.98;1741179;80;20929;-64
2021/06/09 08:24:53;;;;;;;7.20;3.10;;;;;;;25.77;49.54;100455.84;1738999;80;20964;-62
2021/06/09 08:27:21;;;;;;;10.45;3.17;;;;;;;25.76;49.26;100465.11;1739573;80;21002;-61
2021/06/09 08:29:48;;;;;;;3.35;2.85;;;;;;;25.75;49.05;100469.72;1737993;80;21177;-62
2021/06/09 08:32:15;;;;;;;8.30;3.02;;;;;;;25.73;48.82;100480.00;1742720;81;21033;-61
2021/06/09 08:34:42;;;;;;;5.65;3.10;;;;;;;25.67;49.59;100462.28;1746532;80;21576;-62
2021/06/09 08:37:08;;;;;;;3.58;3.10;;;;;;;25.72;49.35;100468.67;1740760;80;20927;-61
2021/06/09 08:39:35;;;;;;;6.87;3.45;;;;;;;25.85;49.24;100457.27;1676099;83;21090;-61
2021/06/09 08:42:03;;;;;;;7.45;3.50;;;;;;;25.98;48.98;100462.33;1737901;80;21087;-62
2021/06/09 08:44:37;;;;;;;6.05;3.20;;;;;;;26.03;49.32;100471.81;1736671;80;21155;-62
2021/06/09 08:47:03;;;;;;;8.20;3.75;;;;;;;25.96;49.44;100461.63;1735524;80;21505;-62
2021/06/09 08:49:29;;;;;;;5.08;3.92;;;;;;;25.94;51.30;100464.52;1732730;82;21017;-62
2021/06/09 08:51:56;;;;;;;9.33;3.47;;;;;;;26.05;52.84;100468.03;1735764;81;21147;-63
2021/06/09 08:54:23;;;;;;;9.00;3.80;;;;;;;26.09;50.05;100469.42;1734786;80;21137;-61
2021/06/09 08:56:51;;;;;;;7.78;3.60;;;;;;;26.07;47.70;100468.73;1734242;80;21065;-61
2021/06/09 08:59:22;;;;;;;5.55;2.90;;;;;;;26.03;46.16;100463.57;1735302;80;21000;-60
2021/06/09 09:01:49;;;;;;;5.17;3.10;;;;;;;25.94;45.53;100459.03;1742343;80;21424;-61
2021/06/09 09:04:16;;;;;;;14.98;4.33;;;;;;;25.90;46.09;100461.75;1742406;80;21056;-61
2021/06/09 09:06:44;;;;;;;13.65;4.15;;;;;;;25.91;48.97;100466.75;1734162;82;39400;-63
2021/06/09 09:09:10;;;;;;;13.45;3.67;;;;;;;25.98;49.38;100472.81;1730881;80;21016;-63
2021/06/09 09:11:37;;;;;;;11.28;3.50;;;;;;;25.98;48.69;100470.06;1732890;80;20996;-61
2021/06/09 09:14:13;;;;;;;7.03;3.47;;;;;;;25.96;47.97;100470.71;1734650;80;21084;-62
2021/06/09 09:17:03;;;;;;;9.55;4.30;;;;;;;25.92;47.92;100466.58;1705114;80;21526;-62
2021/06/09 09:19:33;;;;;;;8.43;3.33;;;;;;;25.93;49.19;100462.80;1658636;84;21656;-63
2021/06/09 09:22:00;;;;;;;7.55;3.47;;;;;;;25.98;49.46;100472.81;1736186;81;21045;-62
2021/06/09 09:24:50;;;;;;;4.62;2.70;;;;;;;26.03;48.73;100465.44;1730364;80;20917;-61
2021/06/09 09:27:39;;;;;;;7.92;3.42;;;;;;;26.02;47.67;100474.70;1713622;82;20925;-62
2021/06/09 09:30:01;;;;;;;10.88;3.58;;;;;;;25.99;47.54;100470.41;1728400;80;21081;-62
2021/06/09 09:32:28;;;;;;;14.83;3.60;;;;;;;25.98;47.83;100476.94;1737255;80;21791;-63
2021/06/09 09:35:11;;;;;;;11.75;3.92;;;;;;;25.98;48.64;100467.32;1736938;81;20925;-63
2021/06/09 09:37:38;;;;;;;6.78;3.50;;;;;;;26.04;50.16;100454.80;1743112;80;21087;-62
2021/06/09 09:40:14;;;;;;;5.62;3.77;;;;;;;26.13;50.02;100468.07;1737995;81;21882;-62
2021/06/09 09:42:38;;;;;;;5.05;3.58;;;;;;;26.12;48.82;100458.11;1738038;81;20910;-62
2021/06/09 09:45:26;;;;;;;6.78;3.67;;;;;;;26.08;47.85;100467.70;1726625;81;21489;-62
2021/06/09 09:48:14;;;;;;;9.35;4.12;;;;;;;26.12;49.31;100467.23;1732049;80;20909;-61
2021/06/09 09:50:51;;;;;;;6.95;4.53;;;;;;;26.22;50.36;100464.89;1730816;81;20966;-62
2021/06/09 09:53:26;;;;;;;8.20;5.25;;;;;;;26.29;51.34;100453.59;1734420;80;21492;-61
2021/06/09 09:56:12;;;;;;;8.88;5.10;;;;;;;26.35;52.71;100458.45;1728868;82;21503;-57
2021/06/09 09:58:58;;;;;;;12.90;5.15;;;;;;;26.29;53.35;100446.22;1732021;81;21661;-58
2021/06/09 10:01:26;;;;;;;9.18;5.08;;;;;;;26.25;54.14;100454.45;1733265;80;39266;-58
2021/06/09 10:03:55;;;;;;;6.75;5.03;;;;;;;26.28;52.88;100449.12;1731039;82;21075;-62
2021/06/09 10:06:28;;;;;;;8.43;4.55;;;;;;;26.35;53.31;100450.70;1728908;80;21587;-61
2021/06/09 10:08:59;;;;;;;;;;;;;;;26.42;52.04;100447.66;1730543;82;21476;-61
2021/06/09 10:11:26;;;;;;;5.97;3.92;;;;;;;26.50;50.94;100444.94;1731950;80;21204;-61
2021/06/09 10:13:52;;;;;;;9.88;4.42;;;;;;;26.56;51.90;100449.76;1734097;82;21123;-61
2021/06/09 10:16:31;;;;;;;9.08;3.87;;;;;;;26.62;52.61;100440.49;1728558;80;21082;-62
2021/06/09 10:19:11;;;;;;;5.83;3.20;;;;;;;26.65;49.04;100439.66;1730002;81;20924;-61
2021/06/09 10:21:55;;;;;;;5.42;3.35;;;;;;;26.71;48.98;100435.38;1675986;82;21662;-62
2021/06/09 10:24:24;;;;;;;6.12;4.75;;;;;;;26.82;47.99;100437.80;1724490;82;21768;-62
2021/06/09 10:26:54;;;;;;;7.37;4.80;;;;;;;26.92;50.48;100436.84;1732694;80;21299;-58
2021/06/09 10:29:21;;;;;;;6.10;4.22;;;;;;;26.92;52.66;100425.84;1729076;80;22320;-63
2021/06/09 10:31:58;;;;;;;8.58;3.95;;;;;;;26.85;52.97;100429.24;1727021;80;21371;-58
2021/06/09 10:34:32;;;;;;;8.68;3.80;;;;;;;26.83;52.42;100420.27;1725576;81;20941;-58
2021/06/09 10:36:58;;;;;;;8.43;3.52;;;;;;;26.90;51.46;100424.63;1732287;81;21126;-62
2021/06/09 10:39:27;;;;;;;6.85;3.12;;;;;;;26.94;48.42;100416.37;1731107;80;21060;-58
2021/06/09 10:42:01;;;;;;;4.60;3.22;;;;;;;27.02;47.55;100416.91;1730204;81;21405;-58
2021/06/09 10:44:34;;;;;;;5.03;3.52;;;;;;;27.09;48.27;100423.47;1733603;80;21004;-59
2021/06/09 10:47:01;;;;;;;6.22;3.85;;;;;;;27.10;49.23;100408.67;1735929;80;21400;-59
2021/06/09 10:49:34;;;;;;;8.43;3.67;;;;;;;27.11;50.09;100409.02;1706914;81;21079;-58
2021/06/09 10:52:05;;;;;;;4.62;3.50;;;;;;;27.08;49.60;100405.73;1735443;81;21053;-58
2021/06/09 10:54:32;;;;;;;11.20;3.50;;;;;;;27.02;49.13;100410.02;1731530;80;21048;-58
2021/06/09 10:56:58;;;;;;;8.58;3.75;;;;;;;26.96;49.52;100407.97;1731913;80;20914;-58
2021/06/09 10:59:28;;;;;;;7.12;3.67;;;;;;;26.95;49.26;100402.12;1730615;80;21025;-58
2021/06/09 11:02:02;;;;;;;8.18;3.60;;;;;;;26.98;49.50;100405.90;1730300;80;44695;-58
2021/06/09 11:04:36;;;;;;;10.50;3.70;;;;;;;27.04;49.23;100403.83;1729420;80;20958;-58
2021/06/09 11:07:06;;;;;;;7.45;3.60;;;;;;;27.05;48.54;100395.08;1730353;80;20970;-58
2021/06/09 11:09:32;;;;;;;4.72;3.50;;;;;;;27.00;48.12;100394.20;1732179;81;21543;-60
2021/06/09 11:12:18;;;;;;;6.72;3.87;;;;;;;26.98;47.49;100385.27;1734429;81;21012;-58
2021/06/09 11:14:55;;;;;;;5.42;3.60;;;;;;;26.90;48.05;100385.27;1734832;81;21119;-58
2021/06/09 11:17:50;;;;;;;4.60;3.60;;;;;;;26.80;48.28;100384.87;1694573;82;21086;-58
2021/06/09 11:20:32;;;;;;;10.40;3.70;;;;;;;26.74;47.96;100386.92;1676238;83;21086;-61
2021/06/09 11:23:11;;;;;;;7.30;3.72;;;;;;;26.67;47.75;100385.36;1700471;83;21038;-60
2021/06/09 11:25:42;;;;;;;6.97;3.65;;;;;;;26.57;47.72;100385.51;1699219;82;21072;-62
2021/06/09 11:28:11;;;;;;;10.48;3.70;;;;;;;26.48;46.87;100379.66;1699525;82;21632;-58
2021/06/09 11:30:50;;;;;;;4.80;3.50;;;;;;;26.43;47.47;100379.30;1733267;82;21555;-63
2021/06/09 11:33:42;;;;;;;4.97;3.92;;;;;;;26.39;47.78;100371.02;1734540;81;20953;-58
2021/06/09 11:36:19;;;;;;;8.05;3.58;;;;;;;26.36;48.39;100374.11;1727518;81;21112;-64
2021/06/09 11:38:59;;;;;;;9.93;3.92;;;;;;;26.28;48.13;100366.20;1724539;80;20961;-61